Startpagina
METAR-TAF:

METAR-TAF

Vliegvelden :

Ambato, Ecuador

breedte: 01-12-43S, lengte: 078-34-28W, hoogte: 2591 m

Actueel weer

Dit bericht is 2 uur en het 10 minuten geleden gemaakt, om 18:00 UTC
Wind 8 kt uit het oostzuidoosten
Temperatuur 25°C
Vochtigheid 47%
Druk 1025 hPa
Zicht 10 km of meer
Verspreide wolken op 3000 ft

METAR: SEAM 241800Z 12008KT 9999 SCT030 25/13 Q1025

Tijdstip: 15:10 (20:10 UTC)


TAF: ontbreekt

Waarnemingen en weersverwachtingen van meer dan 4000 vliegvelden (METAR en TAF).

De beschikbare stations zijn de gele en rode punten op de kaart.

Ga met uw muis naar het station om de naam te zien.

Klik dan om waarnemingen en weersverwachtingen te zien.

kaart wijzigen: klik op de groene knoppen met een zwart kruis om in te zoomen, op de groene knop met een streepje om uit te zoomen of op de groene pijlen voor aangrenzende kaarten.


METAR-TAF: